createdAt,value
2022-07-26T00:02:48.469Z,9.40
2022-07-26T00:07:52.260Z,6.40
2022-07-26T00:12:54.303Z,8.50
2022-07-26T00:17:56.022Z,8.07
2022-07-26T00:22:59.202Z,7.23
2022-07-26T00:28:01.376Z,8.30
2022-07-26T00:33:03.685Z,7.17
2022-07-26T00:38:08.200Z,10.40
2022-07-26T00:43:11.350Z,6.10
2022-07-26T00:48:13.491Z,7.63
2022-07-26T00:53:21.587Z,5.70
2022-07-26T00:58:23.322Z,7.07
2022-07-26T01:03:25.425Z,7.17
2022-07-26T01:08:40.007Z,7.97
2022-07-26T01:13:46.506Z,6.87
2022-07-26T01:18:48.517Z,5.50
2022-07-26T01:23:51.575Z,6.13
2022-07-26T01:28:53.663Z,7.30
2022-07-26T01:33:55.852Z,6.60
2022-07-26T01:38:59.313Z,7.97
2022-07-26T01:44:01.330Z,6.20
2022-07-26T01:49:03.991Z,6.40
2022-07-26T01:54:08.192Z,6.03
2022-07-26T01:59:10.693Z,7.93
2022-07-26T02:04:12.900Z,9.33
2022-07-26T02:09:16.319Z,7.40
2022-07-26T02:14:25.776Z,8.07
2022-07-26T02:19:31.089Z,7.20
2022-07-26T02:24:34.987Z,9.67
2022-07-26T02:29:37.026Z,8.97
2022-07-26T02:34:38.933Z,7.90
2022-07-26T02:39:42.122Z,10.90
2022-07-26T02:44:44.506Z,7.23
2022-07-26T02:49:46.620Z,9.47
2022-07-26T02:54:50.043Z,8.27
2022-07-26T02:59:52.045Z,10.03
2022-07-26T03:04:53.770Z,10.93
2022-07-26T03:09:56.850Z,12.70
2022-07-26T03:14:59.133Z,11.73
2022-07-26T03:20:01.207Z,10.67
2022-07-26T03:25:04.917Z,11.73
2022-07-26T03:30:08.043Z,11.47
2022-07-26T03:35:10.100Z,10.83
2022-07-26T03:40:14.820Z,9.20
2022-07-26T03:45:16.841Z,10.00
2022-07-26T03:50:18.651Z,11.00
2022-07-26T03:55:22.177Z,10.03
2022-07-26T04:00:23.930Z,6.90
2022-07-26T04:05:26.004Z,9.93
2022-07-26T04:10:29.543Z,9.83
2022-07-26T04:15:31.299Z,8.43
2022-07-26T04:20:33.382Z,11.10
2022-07-26T04:25:41.038Z,7.93
2022-07-26T04:30:44.026Z,9.10
2022-07-26T04:35:45.822Z,7.20
2022-07-26T04:40:49.582Z,7.33
2022-07-26T04:45:51.868Z,7.37
2022-07-26T04:50:53.718Z,7.17
2022-07-26T04:55:56.820Z,7.07
2022-07-26T05:01:14.659Z,6.93
2022-07-26T05:06:16.533Z,5.43
2022-07-26T05:11:19.657Z,7.47
2022-07-26T05:16:21.536Z,6.53
2022-07-26T05:21:24.470Z,6.47
2022-07-26T05:26:27.587Z,6.20
2022-07-26T05:31:29.550Z,5.10
2022-07-26T05:36:31.639Z,6.00
2022-07-26T05:41:34.757Z,5.43
2022-07-26T05:46:37.011Z,2.45
2022-07-26T05:51:38.812Z,2.85
2022-07-26T05:56:42.019Z,2.20
2022-07-26T06:01:43.803Z,5.63
2022-07-26T06:06:45.688Z,3.20
2022-07-26T06:11:48.827Z,2.80
2022-07-26T06:16:51.087Z,3.83
2022-07-26T06:21:52.963Z,3.20
2022-07-26T06:27:04.692Z,5.10
2022-07-26T06:32:07.636Z,3.03
2022-07-26T06:37:09.683Z,6.47
2022-07-26T06:42:12.846Z,2.83
2022-07-26T06:47:14.926Z,2.03
2022-07-26T06:52:16.793Z,3.80
2022-07-26T06:57:19.962Z,5.50
2022-07-26T07:02:21.752Z,2.45
2022-07-26T07:07:23.560Z,6.55
2022-07-26T07:12:27.135Z,3.80
2022-07-26T07:17:29.338Z,3.45
2022-07-26T07:22:31.458Z,3.35
2022-07-26T07:27:34.631Z,5.28
2022-07-26T07:32:36.728Z,3.95
2022-07-26T07:37:52.962Z,4.63
2022-07-26T07:42:57.404Z,2.95
2022-07-26T07:47:59.515Z,1.42
2022-07-26T07:53:02.097Z,4.90
2022-07-26T07:58:07.151Z,2.60
2022-07-26T08:03:08.959Z,3.13
2022-07-26T08:08:10.737Z,1.33
2022-07-26T08:13:14.087Z,2.72
2022-07-26T08:18:15.916Z,4.20
2022-07-26T08:23:18.710Z,2.25
2022-07-26T08:28:38.114Z,5.45
2022-07-26T08:33:45.834Z,4.63
2022-07-26T08:38:48.759Z,4.85
2022-07-26T08:43:53.752Z,4.25
2022-07-26T08:48:56.775Z,2.83
2022-07-26T08:54:05.733Z,3.33
2022-07-26T08:59:20.126Z,2.75
2022-07-26T09:04:34.567Z,2.85
2022-07-26T09:09:55.443Z,1.45
2022-07-26T09:14:59.867Z,2.65
2022-07-26T09:20:07.280Z,2.05
2022-07-26T09:25:20.730Z,2.88
2022-07-26T09:30:23.984Z,1.17
2022-07-26T09:40:50.900Z,1.85
2022-07-26T09:46:05.524Z,0.93
2022-07-26T09:51:08.231Z,2.17
2022-07-26T09:56:10.016Z,2.60
2022-07-26T10:01:13.385Z,0.88
2022-07-26T10:06:15.357Z,5.32
2022-07-26T10:11:18.878Z,1.85
2022-07-26T10:16:30.728Z,2.47
2022-07-26T10:21:34.437Z,1.55
2022-07-26T10:26:42.135Z,6.50
2022-07-26T10:31:47.326Z,2.60
2022-07-26T10:36:57.730Z,3.42
2022-07-26T10:42:02.067Z,3.53
2022-07-26T10:47:16.757Z,4.00
2022-07-26T10:52:20.704Z,1.42
2022-07-26T10:57:22.718Z,1.85
2022-07-26T11:02:29.698Z,1.17
2022-07-26T11:07:31.592Z,2.97
2022-07-26T11:12:33.377Z,1.10
2022-07-26T11:17:36.810Z,1.20
2022-07-26T11:22:38.605Z,4.47
2022-07-26T11:27:58.633Z,2.03
2022-07-26T11:33:01.810Z,3.75
2022-07-26T11:38:11.783Z,5.05
2022-07-26T11:43:14.352Z,1.70
2022-07-26T11:48:17.522Z,7.07
2022-07-26T11:53:22.864Z,1.98
2022-07-26T11:58:25.779Z,1.60
2022-07-26T12:03:28.990Z,1.30
2022-07-26T12:08:39.253Z,2.80
2022-07-26T12:13:56.215Z,2.88
2022-07-26T12:18:59.472Z,2.10
2022-07-26T12:24:01.576Z,2.20
2022-07-26T12:29:04.224Z,4.80
2022-07-26T12:34:07.439Z,2.70
2022-07-26T12:39:19.790Z,1.20
2022-07-26T12:44:21.739Z,3.30
2022-07-26T12:49:24.951Z,3.43
2022-07-26T12:54:29.591Z,3.27
2022-07-26T12:59:31.456Z,1.47
2022-07-26T13:04:35.089Z,3.17
2022-07-26T13:09:37.316Z,1.17
2022-07-26T13:14:40.189Z,0.20
2022-07-26T13:19:43.365Z,1.03
2022-07-26T13:24:45.140Z,2.03
2022-07-26T13:29:48.745Z,0.50
2022-07-26T13:34:52.505Z,0.40
2022-07-26T13:39:54.400Z,1.23
2022-07-26T13:44:56.612Z,1.13
2022-07-26T13:50:00.346Z,2.33
2022-07-26T13:55:02.560Z,3.70
2022-07-26T14:00:05.661Z,1.43
2022-07-26T14:05:09.796Z,0.83
2022-07-26T14:10:11.683Z,0.73
2022-07-26T14:15:19.537Z,0.90
2022-07-26T14:20:25.206Z,1.03
2022-07-26T14:25:27.538Z,1.13
2022-07-26T14:30:30.497Z,1.47
2022-07-26T14:35:33.726Z,0.50
2022-07-26T14:40:36.458Z,0.80
2022-07-26T14:45:38.323Z,0.65
2022-07-26T14:51:07.283Z,2.20
2022-07-26T14:56:04.446Z,1.10
2022-07-26T15:01:06.739Z,0.45
2022-07-26T15:06:10.379Z,2.25
2022-07-26T15:11:12.388Z,1.27
2022-07-26T15:16:14.562Z,1.10
2022-07-26T15:21:17.807Z,1.13
2022-07-26T15:26:19.603Z,0.95
2022-07-26T15:31:21.418Z,2.25
2022-07-26T15:36:24.661Z,0.43
2022-07-26T15:41:26.535Z,1.20
2022-07-26T15:46:28.323Z,1.67
2022-07-26T15:51:31.723Z,1.08
2022-07-26T15:56:33.727Z,0.60
2022-07-26T16:01:37.020Z,2.63
2022-07-26T16:06:40.598Z,1.63
2022-07-26T16:11:42.444Z,1.07
2022-07-26T16:16:44.691Z,0.60
2022-07-26T16:21:48.640Z,1.00
2022-07-26T16:26:50.355Z,1.60
2022-07-26T16:31:53.577Z,0.50
2022-07-26T16:36:57.189Z,1.03
2022-07-26T16:42:04.585Z,0.40
2022-07-26T16:47:08.799Z,1.10
2022-07-26T16:52:12.178Z,0.83
2022-07-26T16:57:14.411Z,1.00
2022-07-26T17:02:16.445Z,0.70
2022-07-26T17:07:25.593Z,2.23
2022-07-26T17:12:27.969Z,0.60
2022-07-26T17:17:29.837Z,1.20
2022-07-26T17:22:33.065Z,0.43
2022-07-26T17:27:35.427Z,0.40
2022-07-26T17:32:37.137Z,0.40
2022-07-26T17:37:40.866Z,1.05
2022-07-26T17:42:42.746Z,1.60
2022-07-26T17:47:45.073Z,0.87
2022-07-26T17:52:49.270Z,0.33
2022-07-26T17:57:51.582Z,1.80
2022-07-26T18:02:53.330Z,0.33
2022-07-26T18:07:56.778Z,0.40
2022-07-26T18:12:58.906Z,0.97
2022-07-26T18:18:00.963Z,0.90
2022-07-26T18:23:04.500Z,1.20
2022-07-26T18:28:07.453Z,1.83
2022-07-26T18:33:09.603Z,0.33
2022-07-26T18:38:12.986Z,2.10
2022-07-26T18:43:15.008Z,2.40
2022-07-26T18:48:16.859Z,0.90
2022-07-26T18:53:20.339Z,1.00
2022-07-26T18:58:25.483Z,1.10
2022-07-26T19:03:29.852Z,1.50
2022-07-26T19:08:33.056Z,0.50
2022-07-26T19:13:34.772Z,0.70
2022-07-26T19:18:36.868Z,1.80
2022-07-26T19:23:39.974Z,0.40
2022-07-26T19:28:41.717Z,1.40
2022-07-26T19:33:43.450Z,0.53
2022-07-26T19:38:47.812Z,0.80
2022-07-26T19:43:49.634Z,1.50
2022-07-26T19:48:54.295Z,1.10
2022-07-26T19:53:58.183Z,1.60
2022-07-26T19:59:00.457Z,0.70
2022-07-26T20:04:02.337Z,0.83
2022-07-26T20:09:05.663Z,0.60
2022-07-26T20:14:07.710Z,2.80
2022-07-26T20:19:10.108Z,1.30
2022-07-26T20:24:13.508Z,0.87
2022-07-26T20:29:16.005Z,2.47
2022-07-26T20:34:17.941Z,1.50
2022-07-26T20:39:21.461Z,2.30
2022-07-26T20:44:27.938Z,1.23
2022-07-26T20:49:30.339Z,2.50
2022-07-26T20:54:33.499Z,1.93
2022-07-26T20:59:35.431Z,1.43
2022-07-26T21:04:37.172Z,2.23
2022-07-26T21:09:40.283Z,1.53
2022-07-26T21:14:42.355Z,2.63
2022-07-26T21:19:44.664Z,2.67
2022-07-26T21:24:47.770Z,2.70
2022-07-26T21:29:49.877Z,2.57
2022-07-26T21:34:51.679Z,3.67
2022-07-26T21:39:54.899Z,3.17
2022-07-26T21:44:56.643Z,0.97
2022-07-26T21:50:00.611Z,5.80
2022-07-26T21:55:04.531Z,4.07
2022-07-26T22:00:07.683Z,3.43
2022-07-26T22:05:09.917Z,2.00
2022-07-26T22:10:13.311Z,3.33
2022-07-26T22:15:15.412Z,2.63
2022-07-26T22:20:17.510Z,5.77
2022-07-26T22:25:20.770Z,5.50
2022-07-26T22:30:22.851Z,3.90
2022-07-26T22:35:25.313Z,2.23
2022-07-26T22:40:37.005Z,2.77
2022-07-26T22:45:39.588Z,2.77
2022-07-26T22:50:41.734Z,2.03
2022-07-26T22:55:45.370Z,3.33
2022-07-26T23:00:47.624Z,2.17
2022-07-26T23:05:50.594Z,3.17
2022-07-26T23:10:55.868Z,4.30
2022-07-26T23:16:00.864Z,2.57
2022-07-26T23:21:04.270Z,5.20
2022-07-26T23:26:07.935Z,4.73
2022-07-26T23:31:11.379Z,6.17
2022-07-26T23:36:13.741Z,2.80
2022-07-26T23:41:17.176Z,3.10
2022-07-26T23:46:19.132Z,6.27
2022-07-26T23:51:21.797Z,1.80
2022-07-26T23:56:26.012Z,1.57
